createdAt,value
2018-02-11T00:00:01.593Z,10.00
2018-02-11T00:01:08.368Z,7.10
2018-02-11T00:02:15.097Z,7.10
2018-02-11T00:03:21.793Z,8.00
2018-02-11T00:04:28.543Z,6.70
2018-02-11T00:05:35.252Z,6.80
2018-02-11T00:06:42.222Z,9.00
2018-02-11T00:07:49.023Z,7.20
2018-02-11T00:08:55.728Z,10.50
2018-02-11T00:10:02.436Z,5.60
2018-02-11T00:11:09.107Z,8.50
2018-02-11T00:12:15.812Z,9.00
2018-02-11T00:13:22.596Z,8.80
2018-02-11T00:14:29.331Z,8.30
2018-02-11T00:15:36.049Z,12.90
2018-02-11T00:16:42.768Z,6.90
2018-02-11T00:17:49.484Z,8.00
2018-02-11T00:18:56.166Z,6.60
2018-02-11T00:20:02.870Z,6.80
2018-02-11T00:21:09.550Z,5.70
2018-02-11T00:22:16.231Z,7.10
2018-02-11T00:23:23.039Z,4.90
2018-02-11T00:24:29.716Z,4.70
2018-02-11T00:25:36.420Z,8.50
2018-02-11T00:26:43.123Z,8.00
2018-02-11T00:27:49.831Z,7.60
2018-02-11T00:28:56.515Z,8.70
2018-02-11T00:30:03.199Z,10.50
2018-02-11T00:31:09.875Z,6.50
2018-02-11T00:32:16.547Z,9.50
2018-02-11T00:33:23.387Z,8.50
2018-02-11T00:34:30.063Z,8.00
2018-02-11T00:35:36.736Z,5.60
2018-02-11T00:36:43.924Z,8.00
2018-02-11T00:37:50.672Z,5.30
2018-02-11T00:38:57.423Z,7.70
2018-02-11T00:40:04.094Z,7.70
2018-02-11T00:41:10.897Z,7.50
2018-02-11T00:42:17.598Z,9.30
2018-02-11T00:43:24.303Z,4.60
2018-02-11T00:44:31.311Z,6.20
2018-02-11T00:45:38.006Z,9.40
2018-02-11T00:46:44.711Z,10.90
2018-02-11T00:47:51.435Z,6.40
2018-02-11T00:48:58.139Z,6.30
2018-02-11T00:50:04.847Z,8.20
2018-02-11T00:51:11.515Z,7.50
2018-02-11T00:52:18.283Z,8.30
2018-02-11T00:53:25.016Z,7.60
2018-02-11T00:54:31.723Z,11.00
2018-02-11T00:55:38.436Z,6.90
2018-02-11T00:56:45.137Z,8.30
2018-02-11T00:57:51.838Z,10.90
2018-02-11T00:58:58.606Z,5.50
2018-02-11T01:00:05.452Z,5.60
2018-02-11T01:01:12.227Z,6.30
2018-02-11T01:02:18.935Z,7.60
2018-02-11T01:03:25.787Z,6.50
2018-02-11T01:04:33.001Z,7.40
2018-02-11T01:05:39.711Z,5.90
2018-02-11T01:06:46.433Z,6.40
2018-02-11T01:07:53.169Z,7.70
2018-02-11T01:08:59.857Z,7.50
2018-02-11T01:10:06.664Z,8.60
2018-02-11T01:11:13.446Z,5.00
2018-02-11T01:12:20.104Z,5.20
2018-02-11T01:13:26.827Z,8.20
2018-02-11T01:14:33.491Z,8.80
2018-02-11T01:15:40.211Z,7.10
2018-02-11T01:16:46.999Z,5.10
2018-02-11T01:17:53.659Z,10.80
2018-02-11T01:19:00.832Z,5.60
2018-02-11T01:20:07.559Z,7.10
2018-02-11T01:21:14.275Z,5.40
2018-02-11T01:22:20.958Z,5.90
2018-02-11T01:23:28.132Z,7.90
2018-02-11T01:24:34.804Z,6.40
2018-02-11T01:25:41.503Z,6.20
2018-02-11T01:26:48.301Z,6.30
2018-02-11T01:27:54.955Z,7.20
2018-02-11T01:29:02.104Z,5.60
2018-02-11T01:30:08.807Z,4.60
2018-02-11T01:31:15.511Z,7.40
2018-02-11T01:32:22.225Z,6.70
2018-02-11T01:33:29.003Z,7.50
2018-02-11T01:34:35.711Z,8.60
2018-02-11T01:35:42.483Z,5.10
2018-02-11T01:36:49.156Z,10.20
2018-02-11T01:37:55.853Z,7.40
2018-02-11T01:39:02.526Z,5.50
2018-02-11T01:40:09.279Z,5.70
2018-02-11T01:41:15.999Z,8.80
2018-02-11T01:42:22.975Z,6.00
2018-02-11T01:43:29.695Z,5.90
2018-02-11T01:44:36.402Z,6.10
2018-02-11T01:45:43.091Z,10.90
2018-02-11T01:46:50.008Z,8.70
2018-02-11T01:47:56.711Z,6.30
2018-02-11T01:49:03.450Z,6.50
2018-02-11T01:50:10.135Z,7.40
2018-02-11T01:51:17.298Z,6.90
2018-02-11T01:52:24.107Z,6.90
2018-02-11T01:53:30.800Z,8.20
2018-02-11T01:54:37.504Z,6.30
2018-02-11T01:55:44.219Z,5.80
2018-02-11T01:56:50.912Z,5.30
2018-02-11T01:57:57.640Z,5.00
2018-02-11T01:59:04.307Z,4.20
2018-02-11T02:00:11.083Z,6.40
2018-02-11T02:01:17.767Z,4.60
2018-02-11T02:02:24.463Z,6.80
2018-02-11T02:03:31.439Z,5.70
2018-02-11T02:04:38.167Z,5.80
2018-02-11T02:05:44.851Z,5.80
2018-02-11T02:06:51.599Z,5.90
2018-02-11T02:07:58.361Z,4.70
2018-02-11T02:09:05.083Z,8.20
2018-02-11T02:10:11.894Z,6.00
2018-02-11T02:11:18.563Z,8.30
2018-02-11T02:12:25.728Z,6.20
2018-02-11T02:13:32.439Z,6.50
2018-02-11T02:14:39.401Z,4.20
2018-02-11T02:15:46.132Z,9.30
2018-02-11T02:16:52.821Z,6.40
2018-02-11T02:17:59.691Z,6.10
2018-02-11T02:19:06.380Z,7.60
2018-02-11T02:20:13.066Z,5.30
2018-02-11T02:21:19.755Z,5.30
2018-02-11T02:22:26.535Z,4.60
2018-02-11T02:23:33.246Z,5.10
2018-02-11T02:24:39.975Z,6.00
2018-02-11T02:25:46.660Z,7.40
2018-02-11T02:26:53.379Z,7.20
2018-02-11T02:28:00.081Z,5.50
2018-02-11T02:29:06.977Z,7.10
2018-02-11T02:30:13.655Z,4.10
2018-02-11T02:31:20.527Z,4.50
2018-02-11T02:32:27.233Z,5.80
2018-02-11T02:33:33.948Z,6.00
2018-02-11T02:34:40.720Z,4.50
2018-02-11T02:35:47.419Z,8.80
2018-02-11T02:36:54.233Z,5.10
2018-02-11T02:38:00.939Z,6.20
2018-02-11T02:39:07.636Z,5.20
2018-02-11T02:40:14.455Z,4.80
2018-02-11T02:41:21.143Z,4.00
2018-02-11T02:42:27.835Z,5.80
2018-02-11T02:43:34.544Z,4.60
2018-02-11T02:44:41.283Z,5.20
2018-02-11T02:45:48.178Z,4.60
2018-02-11T02:46:54.954Z,4.90
2018-02-11T02:48:01.636Z,6.50
2018-02-11T02:49:08.345Z,3.80
2018-02-11T02:50:15.063Z,5.00
2018-02-11T02:51:21.743Z,4.80
2018-02-11T02:52:28.532Z,4.40
2018-02-11T02:53:35.232Z,5.60
2018-02-11T02:54:41.926Z,3.80
2018-02-11T02:55:48.647Z,4.60
2018-02-11T02:56:55.372Z,4.10
2018-02-11T02:58:02.116Z,9.10
2018-02-11T02:59:08.868Z,4.70
2018-02-11T03:00:15.588Z,4.00
2018-02-11T03:01:22.396Z,3.60
2018-02-11T03:02:29.123Z,7.40
2018-02-11T03:03:35.912Z,3.70
2018-02-11T03:04:42.591Z,4.00
2018-02-11T03:05:49.331Z,4.80
2018-02-11T03:06:56.126Z,4.40
2018-02-11T03:08:02.836Z,4.50
2018-02-11T03:09:09.728Z,4.00
2018-02-11T03:10:16.410Z,3.70
2018-02-11T03:11:28.295Z,3.50
2018-02-11T03:12:30.086Z,5.30
2018-02-11T03:13:36.807Z,3.60
2018-02-11T03:14:43.491Z,3.70
2018-02-11T03:15:50.171Z,4.70
2018-02-11T03:16:56.907Z,3.70
2018-02-11T03:18:03.595Z,3.40
2018-02-11T03:19:10.382Z,3.70
2018-02-11T03:20:17.112Z,4.40
2018-02-11T03:21:23.791Z,5.60
2018-02-11T03:22:30.541Z,4.60
2018-02-11T03:23:37.268Z,4.10
2018-02-11T03:24:44.004Z,4.20
2018-02-11T03:25:50.727Z,3.60
2018-02-11T03:26:57.482Z,4.80
2018-02-11T03:28:04.190Z,5.30
2018-02-11T03:29:10.903Z,3.70
2018-02-11T03:30:17.624Z,4.20
2018-02-11T03:31:24.420Z,3.70
2018-02-11T03:32:31.224Z,3.60
2018-02-11T03:33:37.950Z,3.30
2018-02-11T03:34:44.662Z,3.80
2018-02-11T03:35:51.392Z,3.70
2018-02-11T03:36:58.085Z,3.40
2018-02-11T03:38:04.891Z,5.50
2018-02-11T03:39:11.614Z,3.60
2018-02-11T03:40:18.311Z,3.80
2018-02-11T03:41:25.115Z,3.70
2018-02-11T03:42:31.844Z,4.30
2018-02-11T03:43:38.543Z,3.60
2018-02-11T03:44:45.304Z,3.70
2018-02-11T03:45:52.027Z,4.20
2018-02-11T03:46:58.787Z,4.00
2018-02-11T03:48:05.512Z,4.70
2018-02-11T03:49:12.230Z,4.20
2018-02-11T03:50:18.999Z,3.30
2018-02-11T03:51:25.709Z,3.50
2018-02-11T03:52:32.449Z,5.10
2018-02-11T03:53:39.237Z,5.50
2018-02-11T03:54:45.943Z,5.40
2018-02-11T03:55:52.671Z,3.70
2018-02-11T03:56:59.363Z,3.50
2018-02-11T03:58:06.088Z,4.20
2018-02-11T03:59:12.832Z,3.90
2018-02-11T04:00:19.636Z,3.80
2018-02-11T04:01:26.356Z,3.70
2018-02-11T04:02:33.051Z,3.50
2018-02-11T04:03:39.791Z,3.50
2018-02-11T04:04:46.552Z,4.00
2018-02-11T04:05:53.628Z,3.40
2018-02-11T04:07:00.350Z,3.70
2018-02-11T04:08:07.065Z,4.90
2018-02-11T04:09:13.813Z,3.60
2018-02-11T04:10:20.511Z,3.70
2018-02-11T04:11:27.204Z,3.50
2018-02-11T04:12:33.947Z,4.10
2018-02-11T04:13:40.638Z,4.90
2018-02-11T04:14:47.374Z,3.90
2018-02-11T04:15:54.171Z,3.60
2018-02-11T04:17:00.867Z,3.70
2018-02-11T04:18:07.603Z,6.10
2018-02-11T04:19:14.300Z,3.30
2018-02-11T04:20:21.028Z,3.70
2018-02-11T04:21:27.844Z,3.60
2018-02-11T04:22:34.635Z,3.40
2018-02-11T04:23:41.419Z,3.50
2018-02-11T04:24:48.207Z,3.30
2018-02-11T04:25:54.951Z,3.60
2018-02-11T04:27:01.683Z,3.50
2018-02-11T04:28:08.475Z,3.50
2018-02-11T04:29:15.341Z,5.00
2018-02-11T04:30:22.067Z,3.40
2018-02-11T04:31:28.798Z,3.70
2018-02-11T04:32:35.470Z,3.20
2018-02-11T04:33:42.163Z,3.00
2018-02-11T04:34:48.898Z,4.00
2018-02-11T04:35:55.582Z,3.30
2018-02-11T04:37:02.296Z,3.20
2018-02-11T04:38:09.098Z,3.20
2018-02-11T04:39:15.803Z,3.60
2018-02-11T04:40:22.487Z,3.50
2018-02-11T04:41:29.292Z,3.60
2018-02-11T04:42:36.020Z,3.20
2018-02-11T04:43:42.752Z,3.80
2018-02-11T04:44:49.535Z,3.10
2018-02-11T04:45:56.323Z,3.40
2018-02-11T04:47:03.059Z,3.10
2018-02-11T04:48:09.755Z,3.20
2018-02-11T04:49:16.493Z,4.10
2018-02-11T04:50:23.207Z,3.30
2018-02-11T04:51:29.898Z,3.30
2018-02-11T04:52:36.702Z,3.40
2018-02-11T04:53:43.371Z,3.80
2018-02-11T04:54:50.087Z,3.20
2018-02-11T04:55:56.803Z,3.30
2018-02-11T04:57:03.513Z,2.70
2018-02-11T04:58:10.244Z,3.20
2018-02-11T04:59:17.047Z,3.20
2018-02-11T05:00:23.743Z,3.30
2018-02-11T05:01:30.454Z,3.70
2018-02-11T05:02:37.212Z,3.30
2018-02-11T05:03:43.933Z,3.20
2018-02-11T05:04:50.639Z,3.10
2018-02-11T05:05:57.299Z,2.80
2018-02-11T05:07:04.082Z,3.20
2018-02-11T05:08:10.804Z,3.00
2018-02-11T05:09:17.483Z,3.20
2018-02-11T05:10:24.176Z,3.00
2018-02-11T05:11:30.892Z,3.10
2018-02-11T05:12:37.620Z,2.90
2018-02-11T05:13:44.443Z,3.20
2018-02-11T05:14:51.119Z,2.90
2018-02-11T05:15:57.821Z,2.80
2018-02-11T05:17:04.836Z,2.90
2018-02-11T05:18:11.532Z,3.20
2018-02-11T05:19:18.336Z,3.30
2018-02-11T05:20:25.055Z,3.10
2018-02-11T05:21:31.931Z,3.10
2018-02-11T05:22:38.604Z,2.70
2018-02-11T05:23:45.324Z,3.60
2018-02-11T05:24:52.042Z,2.90
2018-02-11T05:25:58.808Z,3.10
2018-02-11T05:27:05.555Z,3.00
2018-02-11T05:28:12.267Z,2.90
2018-02-11T05:29:18.980Z,3.00
2018-02-11T05:30:25.728Z,3.40
2018-02-11T05:31:32.788Z,3.10
2018-02-11T05:32:39.487Z,3.30
2018-02-11T05:33:46.207Z,2.70
2018-02-11T05:34:52.915Z,2.90
2018-02-11T05:35:59.703Z,3.00
2018-02-11T05:37:06.534Z,3.00
2018-02-11T05:38:13.232Z,2.70
2018-02-11T05:39:19.971Z,2.70
2018-02-11T05:40:26.696Z,2.60
2018-02-11T05:41:33.399Z,2.80
2018-02-11T05:42:40.108Z,2.60
2018-02-11T05:43:46.803Z,2.50
2018-02-11T05:44:53.531Z,2.60
2018-02-11T05:46:00.320Z,2.80
2018-02-11T05:47:07.100Z,2.70
2018-02-11T05:48:13.782Z,2.60
2018-02-11T05:49:20.507Z,2.60
2018-02-11T05:50:27.340Z,2.70
2018-02-11T05:51:34.176Z,2.50
2018-02-11T05:52:40.948Z,2.70
2018-02-11T05:53:47.696Z,2.70
2018-02-11T05:54:54.400Z,3.00
2018-02-11T05:56:01.195Z,2.50
2018-02-11T05:57:07.962Z,3.40
2018-02-11T05:58:14.672Z,3.00
2018-02-11T05:59:21.406Z,2.70
2018-02-11T06:00:28.095Z,2.70
2018-02-11T06:01:34.800Z,2.50
2018-02-11T06:02:41.535Z,2.50
2018-02-11T06:03:48.227Z,2.70
2018-02-11T06:04:55.056Z,2.40
2018-02-11T06:06:01.815Z,2.40
2018-02-11T06:07:08.650Z,2.40
2018-02-11T06:08:15.329Z,2.10
2018-02-11T06:09:22.023Z,2.50
2018-02-11T06:10:28.772Z,2.50
2018-02-11T06:11:35.684Z,2.40
2018-02-11T06:12:42.487Z,2.90
2018-02-11T06:13:49.336Z,2.20
2018-02-11T06:14:56.100Z,2.50
2018-02-11T06:16:02.816Z,2.20
2018-02-11T06:17:09.567Z,2.40
2018-02-11T06:18:16.565Z,2.60
2018-02-11T06:19:23.419Z,2.30
2018-02-11T06:20:30.507Z,4.00
2018-02-11T06:21:37.427Z,2.30
2018-02-11T06:22:44.499Z,2.50
2018-02-11T06:23:51.359Z,2.20
2018-02-11T06:24:58.181Z,2.90
2018-02-11T06:26:05.091Z,2.10
2018-02-11T06:27:11.899Z,2.20
2018-02-11T06:28:18.829Z,2.40
2018-02-11T06:29:25.544Z,2.30
2018-02-11T06:30:32.343Z,2.40
2018-02-11T06:31:39.035Z,2.20
2018-02-11T06:32:45.919Z,2.30
2018-02-11T06:33:52.727Z,3.00
2018-02-11T06:34:59.488Z,2.20
2018-02-11T06:36:06.198Z,2.30
2018-02-11T06:37:12.999Z,2.50
2018-02-11T06:38:19.710Z,2.40
2018-02-11T06:39:26.639Z,2.40
2018-02-11T06:40:33.426Z,2.30
2018-02-11T06:41:40.139Z,2.10
2018-02-11T06:42:46.932Z,2.20
2018-02-11T06:43:53.672Z,2.60
2018-02-11T06:45:00.528Z,2.40
2018-02-11T06:46:07.265Z,2.20
2018-02-11T06:47:13.979Z,2.20
2018-02-11T06:48:20.703Z,2.40
2018-02-11T06:49:27.575Z,2.20
2018-02-11T06:50:34.288Z,2.40
2018-02-11T06:51:41.063Z,2.10
2018-02-11T06:52:47.774Z,2.10
2018-02-11T06:53:54.472Z,2.60
2018-02-11T06:55:01.327Z,2.30
2018-02-11T06:56:08.052Z,2.30
2018-02-11T06:57:14.784Z,2.40
2018-02-11T06:58:21.527Z,2.20
2018-02-11T06:59:28.361Z,2.40
2018-02-11T07:00:35.048Z,2.30
2018-02-11T07:01:41.761Z,2.40
2018-02-11T07:02:48.630Z,2.30
2018-02-11T07:03:55.435Z,2.10
2018-02-11T07:05:02.157Z,2.30
2018-02-11T07:06:08.914Z,2.20
2018-02-11T07:07:15.698Z,3.10
2018-02-11T07:08:22.546Z,4.90
2018-02-11T07:09:29.292Z,4.50
2018-02-11T07:10:36.003Z,4.30
2018-02-11T07:11:42.874Z,4.90
2018-02-11T07:12:49.651Z,5.10
2018-02-11T07:13:57.039Z,5.10
2018-02-11T07:15:03.896Z,5.30
2018-02-11T07:16:10.716Z,5.00
2018-02-11T07:17:17.696Z,4.50
2018-02-11T07:18:24.420Z,4.50
2018-02-11T07:19:31.116Z,4.70
2018-02-11T07:20:37.907Z,5.00
2018-02-11T07:21:44.653Z,5.00
2018-02-11T07:22:51.543Z,2.20
2018-02-11T07:23:58.311Z,1.90
2018-02-11T07:25:05.045Z,2.00
2018-02-11T07:26:11.835Z,2.10
2018-02-11T07:27:18.630Z,2.20
2018-02-11T07:28:25.399Z,2.00
2018-02-11T07:29:32.128Z,2.10
2018-02-11T07:30:39.127Z,1.80
2018-02-11T07:31:45.892Z,2.30
2018-02-11T07:32:52.723Z,2.70
2018-02-11T07:33:59.508Z,1.90
2018-02-11T07:35:06.255Z,1.90
2018-02-11T07:36:13.004Z,2.60
2018-02-11T07:37:19.824Z,2.10
2018-02-11T07:38:26.624Z,2.00
2018-02-11T07:39:33.413Z,2.40
2018-02-11T07:40:40.103Z,2.10
2018-02-11T07:41:46.887Z,2.10
2018-02-11T07:42:53.723Z,2.20
2018-02-11T07:44:00.412Z,2.30
2018-02-11T07:45:07.163Z,2.20
2018-02-11T07:46:14.311Z,2.40
2018-02-11T07:47:21.123Z,2.10
2018-02-11T07:48:27.844Z,2.50
2018-02-11T07:49:34.633Z,2.20
2018-02-11T07:50:41.375Z,2.20
2018-02-11T07:51:48.228Z,2.30
2018-02-11T07:52:55.909Z,2.20
2018-02-11T07:54:02.160Z,2.30
2018-02-11T07:55:08.757Z,3.10
2018-02-11T07:56:15.760Z,7.70
2018-02-11T07:57:22.491Z,8.20
2018-02-11T07:58:29.340Z,7.40
2018-02-11T07:59:36.103Z,8.10
2018-02-11T08:00:42.968Z,3.70
2018-02-11T08:01:49.816Z,4.70
2018-02-11T08:02:56.547Z,6.70
2018-02-11T08:04:03.583Z,6.50
2018-02-11T08:05:10.343Z,6.80
2018-02-11T08:06:17.127Z,6.40
2018-02-11T08:07:23.882Z,2.30
2018-02-11T08:08:30.663Z,2.30
2018-02-11T08:09:37.403Z,2.20
2018-02-11T08:10:44.204Z,2.00
2018-02-11T08:11:51.051Z,2.30
2018-02-11T08:12:57.812Z,2.40
2018-02-11T08:14:04.716Z,2.50
2018-02-11T08:15:11.532Z,2.30
2018-02-11T08:16:18.296Z,2.40
2018-02-11T08:17:25.090Z,2.30
2018-02-11T08:18:31.893Z,2.30
2018-02-11T08:19:38.657Z,2.50
2018-02-11T08:20:45.525Z,2.40
2018-02-11T08:21:52.309Z,2.20
2018-02-11T08:22:59.168Z,2.50
2018-02-11T08:24:05.914Z,2.30
2018-02-11T08:25:12.699Z,2.20
2018-02-11T08:26:19.526Z,2.30
2018-02-11T08:27:26.347Z,2.30
2018-02-11T08:28:33.231Z,2.40
2018-02-11T08:29:40.084Z,2.30
2018-02-11T08:30:47.164Z,2.10
2018-02-11T08:31:53.974Z,2.40
2018-02-11T08:33:00.690Z,2.50
2018-02-11T08:34:07.552Z,2.60
2018-02-11T08:35:14.335Z,2.30
2018-02-11T08:36:21.164Z,2.20
2018-02-11T08:37:27.891Z,2.30
2018-02-11T08:38:34.807Z,2.20
2018-02-11T08:39:41.543Z,2.40
2018-02-11T08:40:48.299Z,2.60
2018-02-11T08:41:55.231Z,2.60
2018-02-11T08:43:02.004Z,2.40
2018-02-11T08:44:08.778Z,2.40
2018-02-11T08:45:15.648Z,2.20
2018-02-11T08:46:22.512Z,2.50
2018-02-11T08:47:29.275Z,2.10
2018-02-11T08:48:36.160Z,2.80
2018-02-11T08:49:42.973Z,2.10
2018-02-11T08:50:49.746Z,2.20
2018-02-11T08:51:56.533Z,2.30
2018-02-11T08:53:03.303Z,2.80
2018-02-11T08:54:10.356Z,2.20
2018-02-11T08:55:17.296Z,2.10
2018-02-11T08:56:24.705Z,3.10
2018-02-11T08:57:30.987Z,2.00
2018-02-11T08:58:37.781Z,1.90
2018-02-11T08:59:44.527Z,2.40
2018-02-11T09:00:51.332Z,2.00
2018-02-11T09:01:58.098Z,2.20
2018-02-11T09:03:04.852Z,2.00
2018-02-11T09:04:11.620Z,1.90
2018-02-11T09:05:18.640Z,2.10
2018-02-11T09:06:25.474Z,2.00
2018-02-11T09:07:32.271Z,2.10
2018-02-11T09:08:39.031Z,1.90
2018-02-11T09:09:45.865Z,2.00
2018-02-11T09:10:52.897Z,1.90
2018-02-11T09:11:59.484Z,2.00
2018-02-11T09:13:06.316Z,1.90
2018-02-11T09:14:13.105Z,1.80
2018-02-11T09:15:19.948Z,1.90
2018-02-11T09:16:26.777Z,1.70
2018-02-11T09:17:33.487Z,2.00
2018-02-11T09:18:40.222Z,1.70
2018-02-11T09:19:46.967Z,1.80
2018-02-11T09:20:53.835Z,2.00
2018-02-11T09:22:00.643Z,1.90
2018-02-11T09:23:07.450Z,2.10
2018-02-11T09:24:14.223Z,1.90
2018-02-11T09:25:21.032Z,1.90
2018-02-11T09:26:27.762Z,2.30
2018-02-11T09:27:34.478Z,1.90
2018-02-11T09:28:41.236Z,1.70
2018-02-11T09:29:47.943Z,1.70
2018-02-11T09:30:54.659Z,1.80
2018-02-11T09:32:01.391Z,1.70
2018-02-11T09:33:08.238Z,1.80
2018-02-11T09:34:15.087Z,1.70
2018-02-11T09:35:22.674Z,1.60
2018-02-11T09:36:28.747Z,1.80
2018-02-11T09:37:35.488Z,2.20
2018-02-11T09:38:42.227Z,2.00
2018-02-11T09:39:49.014Z,1.90
2018-02-11T09:40:55.791Z,1.60
2018-02-11T09:42:02.611Z,1.70
2018-02-11T09:43:09.379Z,1.80
2018-02-11T09:44:16.199Z,1.70
2018-02-11T09:45:22.987Z,1.90
2018-02-11T09:46:29.752Z,2.10
2018-02-11T09:47:36.602Z,2.60
2018-02-11T09:48:43.368Z,2.50
2018-02-11T09:49:50.203Z,2.40
2018-02-11T09:50:56.918Z,2.00
2018-02-11T09:52:03.841Z,1.90
2018-02-11T09:53:10.593Z,2.00
2018-02-11T09:54:17.367Z,1.90
2018-02-11T09:55:24.177Z,1.80
2018-02-11T09:56:30.931Z,1.80
2018-02-11T09:57:37.712Z,1.80
2018-02-11T09:58:44.489Z,1.70
2018-02-11T09:59:51.336Z,1.80
2018-02-11T10:00:58.134Z,2.00
2018-02-11T10:02:04.905Z,2.10
2018-02-11T10:03:11.831Z,2.00
2018-02-11T10:04:18.627Z,2.00
2018-02-11T10:05:25.495Z,2.10
2018-02-11T10:06:32.260Z,1.90
2018-02-11T10:07:39.039Z,2.10
2018-02-11T10:08:45.793Z,2.00
2018-02-11T10:09:53.044Z,2.00
2018-02-11T10:10:59.811Z,2.20
2018-02-11T10:12:06.528Z,2.10
2018-02-11T10:13:13.707Z,2.50
2018-02-11T10:14:20.548Z,2.10
2018-02-11T10:15:27.384Z,2.00
2018-02-11T10:16:34.131Z,2.00
2018-02-11T10:17:41.012Z,2.00
2018-02-11T10:18:47.960Z,2.00
2018-02-11T10:19:54.688Z,2.10
2018-02-11T10:21:01.479Z,2.40
2018-02-11T10:22:08.283Z,2.10
2018-02-11T10:23:15.083Z,2.30
2018-02-11T10:24:22.172Z,2.50
2018-02-11T10:25:29.068Z,2.60
2018-02-11T10:26:35.936Z,2.20
2018-02-11T10:27:43.022Z,2.00
2018-02-11T10:28:50.252Z,2.10
2018-02-11T10:29:57.249Z,2.30
2018-02-11T10:31:03.960Z,3.10
2018-02-11T10:32:10.908Z,2.60
2018-02-11T10:33:17.852Z,2.50
2018-02-11T10:34:24.720Z,2.70
2018-02-11T10:35:31.516Z,2.70
2018-02-11T10:36:38.497Z,2.80
2018-02-11T10:37:45.396Z,2.70
2018-02-11T10:38:52.311Z,2.30
2018-02-11T10:39:59.406Z,2.60
2018-02-11T10:41:06.228Z,3.00
2018-02-11T10:42:15.662Z,3.30
2018-02-11T10:43:20.227Z,3.10
2018-02-11T10:44:27.148Z,2.40
2018-02-11T10:45:34.465Z,2.90
2018-02-11T10:46:40.888Z,2.80
2018-02-11T10:47:47.700Z,2.90
2018-02-11T10:48:54.481Z,3.90
2018-02-11T10:50:01.349Z,3.20
2018-02-11T10:51:08.263Z,3.00
2018-02-11T10:52:15.192Z,3.30
2018-02-11T10:53:22.155Z,3.10
2018-02-11T10:54:28.929Z,3.20
2018-02-11T10:55:36.099Z,4.00
2018-02-11T10:56:43.037Z,2.50
2018-02-11T10:57:49.979Z,2.50
2018-02-11T10:58:57.099Z,3.30
2018-02-11T11:00:04.042Z,3.00
2018-02-11T11:01:11.163Z,2.50
2018-02-11T11:02:18.176Z,2.90
2018-02-11T11:03:24.816Z,3.20
2018-02-11T11:04:31.868Z,2.80
2018-02-11T11:05:38.903Z,2.90
2018-02-11T11:06:46.052Z,3.30
2018-02-11T11:07:53.204Z,2.90
2018-02-11T11:09:00.098Z,3.10
2018-02-11T11:10:07.004Z,3.10
2018-02-11T11:11:13.972Z,3.50
2018-02-11T11:12:20.802Z,2.80
2018-02-11T11:13:27.852Z,2.80
2018-02-11T11:14:37.008Z,5.90
2018-02-11T11:15:42.913Z,3.50
2018-02-11T11:16:48.708Z,3.20
2018-02-11T11:17:55.612Z,3.80
2018-02-11T11:19:02.424Z,3.10
2018-02-11T11:20:09.252Z,5.00
2018-02-11T11:21:16.033Z,3.30
2018-02-11T11:22:22.944Z,4.80
2018-02-11T11:23:29.720Z,4.40
2018-02-11T11:25:43.320Z,3.20
2018-02-11T11:26:50.367Z,6.00
2018-02-11T11:27:57.292Z,3.20
2018-02-11T11:29:04.230Z,5.90
2018-02-11T11:30:11.250Z,18.50
2018-02-11T11:31:18.488Z,7.00
2018-02-11T11:32:24.812Z,5.70
2018-02-11T11:33:31.593Z,4.90
2018-02-11T11:34:38.424Z,16.00
2018-02-11T11:35:45.326Z,5.40
2018-02-11T11:36:52.228Z,10.50
2018-02-11T11:37:59.074Z,8.30
2018-02-11T11:39:05.971Z,6.60
2018-02-11T11:40:12.845Z,3.50
2018-02-11T11:41:19.735Z,5.40
2018-02-11T11:42:26.606Z,4.00
2018-02-11T11:43:33.536Z,5.80
2018-02-11T11:44:40.392Z,3.60
2018-02-11T11:45:47.316Z,6.10
2018-02-11T11:46:54.168Z,4.20
2018-02-11T11:48:01.097Z,4.00
2018-02-11T11:49:07.932Z,4.10
2018-02-11T11:50:14.848Z,4.60
2018-02-11T11:51:21.715Z,9.40
2018-02-11T11:52:28.303Z,4.60
2018-02-11T11:53:35.085Z,3.90
2018-02-11T11:54:41.924Z,4.00
2018-02-11T11:55:48.755Z,5.90
2018-02-11T11:56:55.912Z,4.20
2018-02-11T11:58:02.564Z,3.80
2018-02-11T11:59:09.643Z,6.60
2018-02-11T12:00:16.692Z,5.90
2018-02-11T12:01:23.631Z,4.60
2018-02-11T12:02:30.415Z,4.10
2018-02-11T12:03:37.260Z,4.80
2018-02-11T12:04:44.195Z,3.40
2018-02-11T12:05:51.164Z,3.40
2018-02-11T12:06:58.136Z,3.90
2018-02-11T12:08:05.112Z,4.50
2018-02-11T12:09:11.963Z,5.00
2018-02-11T12:10:18.878Z,6.20
2018-02-11T12:11:25.647Z,5.20
2018-02-11T12:12:32.418Z,4.80
2018-02-11T12:13:39.143Z,4.90
2018-02-11T12:14:46.011Z,5.50
2018-02-11T12:15:52.759Z,4.10
2018-02-11T12:16:59.533Z,4.90
2018-02-11T12:18:06.368Z,3.80
2018-02-11T12:19:13.120Z,4.70
2018-02-11T12:20:19.831Z,3.80
2018-02-11T12:21:26.601Z,3.20
2018-02-11T12:22:33.458Z,6.20
2018-02-11T12:23:40.199Z,3.20
2018-02-11T12:24:46.939Z,4.50
2018-02-11T12:25:53.661Z,5.20
2018-02-11T12:27:00.509Z,5.60
2018-02-11T12:28:07.240Z,4.30
2018-02-11T12:29:13.965Z,5.30
2018-02-11T12:30:20.721Z,4.40
2018-02-11T12:31:27.560Z,6.40
2018-02-11T12:32:34.612Z,4.30
2018-02-11T12:33:41.372Z,6.80
2018-02-11T12:34:48.111Z,9.80
2018-02-11T12:35:54.844Z,5.50
2018-02-11T12:37:01.672Z,7.20
2018-02-11T12:38:08.432Z,9.50
2018-02-11T12:39:15.163Z,5.10
2018-02-11T12:40:21.929Z,6.30
2018-02-11T12:41:28.689Z,5.40
2018-02-11T12:42:35.525Z,5.20
2018-02-11T12:43:42.295Z,3.90
2018-02-11T12:44:49.090Z,5.20
2018-02-11T12:45:55.951Z,5.40
2018-02-11T12:47:02.691Z,4.10
2018-02-11T12:48:09.427Z,3.60
2018-02-11T12:49:16.225Z,8.50
2018-02-11T12:50:22.996Z,5.00
2018-02-11T12:51:29.730Z,14.80
2018-02-11T12:52:36.512Z,5.50
2018-02-11T12:53:43.348Z,6.50
2018-02-11T12:54:50.119Z,6.20
2018-02-11T12:55:56.955Z,5.60
2018-02-11T12:57:03.777Z,4.70
2018-02-11T12:58:10.503Z,6.40
2018-02-11T12:59:17.276Z,4.70
2018-02-11T13:00:24.027Z,5.50
2018-02-11T13:01:30.811Z,3.40
2018-02-11T13:02:37.552Z,4.00
2018-02-11T13:03:44.317Z,4.30
2018-02-11T13:04:51.059Z,12.20
2018-02-11T13:05:57.823Z,20.70
2018-02-11T13:07:04.668Z,6.70
2018-02-11T13:08:11.441Z,4.60
2018-02-11T13:09:18.223Z,6.10
2018-02-11T13:10:24.981Z,3.30
2018-02-11T13:11:31.728Z,5.00
2018-02-11T13:12:38.454Z,5.10
2018-02-11T13:13:45.245Z,5.70
2018-02-11T13:14:52.040Z,2.70
2018-02-11T13:15:58.779Z,4.10
2018-02-11T13:17:05.619Z,2.70
2018-02-11T13:18:12.380Z,3.70
2018-02-11T13:19:19.203Z,3.90
2018-02-11T13:20:26.054Z,3.80
2018-02-11T13:21:32.884Z,3.90
2018-02-11T13:22:39.604Z,2.60
2018-02-11T13:23:46.436Z,4.70
2018-02-11T13:24:53.199Z,3.50
2018-02-11T13:26:00.076Z,2.30
2018-02-11T13:27:06.845Z,3.40
2018-02-11T13:28:13.617Z,4.10
2018-02-11T13:29:20.319Z,6.20
2018-02-11T13:30:27.154Z,7.60
2018-02-11T13:31:34.025Z,3.80
2018-02-11T13:32:40.728Z,6.60
2018-02-11T13:33:47.459Z,3.70
2018-02-11T13:34:54.162Z,6.80
2018-02-11T13:36:00.984Z,3.60
2018-02-11T13:37:08.098Z,9.30
2018-02-11T13:38:14.855Z,5.50
2018-02-11T13:39:21.587Z,3.00
2018-02-11T13:40:28.394Z,5.20
2018-02-11T13:41:35.179Z,7.40
2018-02-11T13:42:41.882Z,5.30
2018-02-11T13:43:48.612Z,4.90
2018-02-11T13:44:55.431Z,8.60
2018-02-11T13:46:02.239Z,7.60
2018-02-11T13:47:09.018Z,9.30
2018-02-11T13:48:15.784Z,6.60
2018-02-11T13:49:22.608Z,6.50
2018-02-11T13:50:29.447Z,5.60
2018-02-11T13:51:36.203Z,3.40
2018-02-11T13:52:42.995Z,7.60
2018-02-11T13:53:49.815Z,3.80
2018-02-11T13:54:56.530Z,5.40
2018-02-11T13:56:03.289Z,9.20
2018-02-11T13:57:10.080Z,8.10
2018-02-11T13:58:16.917Z,11.70
2018-02-11T13:59:23.693Z,12.00
2018-02-11T14:00:30.427Z,8.30
2018-02-11T14:01:37.192Z,7.00
2018-02-11T14:02:43.940Z,7.70
2018-02-11T14:03:50.821Z,6.20
2018-02-11T14:04:57.603Z,10.50
2018-02-11T14:06:04.453Z,8.60
2018-02-11T14:07:11.244Z,10.20
2018-02-11T14:08:17.983Z,7.00
2018-02-11T14:09:25.000Z,5.60
2018-02-11T14:10:31.740Z,7.50
2018-02-11T14:11:38.463Z,11.80
2018-02-11T14:12:45.213Z,5.60
2018-02-11T14:13:52.016Z,10.10
2018-02-11T14:14:58.739Z,7.10
2018-02-11T14:16:05.499Z,6.80
2018-02-11T14:17:12.312Z,6.60
2018-02-11T14:18:19.041Z,9.10
2018-02-11T14:19:25.796Z,7.40
2018-02-11T14:20:32.540Z,7.70
2018-02-11T14:21:39.295Z,8.80
2018-02-11T14:22:46.069Z,8.10
2018-02-11T14:23:52.823Z,7.90
2018-02-11T14:24:59.584Z,9.00
2018-02-11T14:26:06.430Z,10.80
2018-02-11T14:27:13.159Z,7.10
2018-02-11T14:28:19.935Z,8.00
2018-02-11T14:29:26.647Z,6.80
2018-02-11T14:30:33.455Z,9.30
2018-02-11T14:31:40.232Z,9.70
2018-02-11T14:32:47.000Z,4.80
2018-02-11T14:33:53.743Z,4.90
2018-02-11T14:35:00.492Z,4.80
2018-02-11T14:36:07.259Z,12.50
2018-02-11T14:37:14.120Z,5.80
2018-02-11T14:38:20.929Z,6.60
2018-02-11T14:39:27.675Z,6.90
2018-02-11T14:40:34.451Z,10.40
2018-02-11T14:41:41.324Z,11.20
2018-02-11T14:42:48.094Z,10.60
2018-02-11T14:43:54.929Z,13.80
2018-02-11T14:45:01.736Z,11.00
2018-02-11T14:46:08.500Z,10.60
2018-02-11T14:47:15.289Z,5.10
2018-02-11T14:48:22.057Z,7.80